sensor_id;sensor_type;location;lat;lon;timestamp;temperature;humidity
75170;SHT31;63749;49.186;9.222;2023-05-16T00:00:37;12.14;88.34
75170;SHT31;63749;49.186;9.222;2023-05-16T00:03:05;12.14;88.31
75170;SHT31;63749;49.186;9.222;2023-05-16T00:05:30;12.14;88.48
75170;SHT31;63749;49.186;9.222;2023-05-16T00:07:56;12.17;88.20
75170;SHT31;63749;49.186;9.222;2023-05-16T00:10:21;12.18;88.39
75170;SHT31;63749;49.186;9.222;2023-05-16T00:12:46;12.20;88.37
75170;SHT31;63749;49.186;9.222;2023-05-16T00:15:12;12.18;88.40
75170;SHT31;63749;49.186;9.222;2023-05-16T00:17:38;12.20;88.61
75170;SHT31;63749;49.186;9.222;2023-05-16T00:20:05;12.22;88.35
75170;SHT31;63749;49.186;9.222;2023-05-16T00:22:35;12.24;88.33
75170;SHT31;63749;49.186;9.222;2023-05-16T00:25:00;12.29;88.42
75170;SHT31;63749;49.186;9.222;2023-05-16T00:27:26;12.31;88.41
75170;SHT31;63749;49.186;9.222;2023-05-16T00:29:51;12.35;88.37
75170;SHT31;63749;49.186;9.222;2023-05-16T00:32:17;12.32;88.32
75170;SHT31;63749;49.186;9.222;2023-05-16T00:34:42;12.37;88.35
75170;SHT31;63749;49.186;9.222;2023-05-16T00:37:08;12.35;88.48
75170;SHT31;63749;49.186;9.222;2023-05-16T00:39:33;12.38;88.67
75170;SHT31;63749;49.186;9.222;2023-05-16T00:41:59;12.34;88.42
75170;SHT31;63749;49.186;9.222;2023-05-16T00:44:24;12.31;88.39
75170;SHT31;63749;49.186;9.222;2023-05-16T00:46:49;12.34;88.51
75170;SHT31;63749;49.186;9.222;2023-05-16T00:49:15;12.34;88.55
75170;SHT31;63749;49.186;9.222;2023-05-16T00:51:41;12.31;88.82
75170;SHT31;63749;49.186;9.222;2023-05-16T00:54:07;12.32;88.72
75170;SHT31;63749;49.186;9.222;2023-05-16T00:56:33;12.29;88.98
75170;SHT31;63749;49.186;9.222;2023-05-16T00:58:58;12.27;89.10
75170;SHT31;63749;49.186;9.222;2023-05-16T01:01:25;12.31;88.97
75170;SHT31;63749;49.186;9.222;2023-05-16T01:03:52;12.28;88.83
75170;SHT31;63749;49.186;9.222;2023-05-16T01:06:18;12.25;89.00
75170;SHT31;63749;49.186;9.222;2023-05-16T01:08:43;12.22;89.10
75170;SHT31;63749;49.186;9.222;2023-05-16T01:11:31;12.21;89.28
75170;SHT31;63749;49.186;9.222;2023-05-16T01:22:09;12.14;89.22
75170;SHT31;63749;49.186;9.222;2023-05-16T01:27:24;12.16;88.95
75170;SHT31;63749;49.186;9.222;2023-05-16T01:29:55;12.16;88.90
75170;SHT31;63749;49.186;9.222;2023-05-16T01:32:21;12.14;89.24
75170;SHT31;63749;49.186;9.222;2023-05-16T01:34:47;12.16;89.87
75170;SHT31;63749;49.186;9.222;2023-05-16T01:37:20;12.18;89.90
75170;SHT31;63749;49.186;9.222;2023-05-16T01:40:14;12.17;90.18
75170;SHT31;63749;49.186;9.222;2023-05-16T01:42:43;12.17;90.75
75170;SHT31;63749;49.186;9.222;2023-05-16T01:47:41;12.18;91.15
75170;SHT31;63749;49.186;9.222;2023-05-16T01:52:37;12.11;90.83
75170;SHT31;63749;49.186;9.222;2023-05-16T01:55:09;12.13;90.62
75170;SHT31;63749;49.186;9.222;2023-05-16T01:57:37;12.08;90.30
75170;SHT31;63749;49.186;9.222;2023-05-16T02:00:04;12.01;89.61
75170;SHT31;63749;49.186;9.222;2023-05-16T02:02:30;12.00;89.52
75170;SHT31;63749;49.186;9.222;2023-05-16T02:04:55;11.98;89.65
75170;SHT31;63749;49.186;9.222;2023-05-16T02:07:21;11.91;89.84
75170;SHT31;63749;49.186;9.222;2023-05-16T02:09:46;11.86;89.73
75170;SHT31;63749;49.186;9.222;2023-05-16T02:12:11;11.80;90.00
75170;SHT31;63749;49.186;9.222;2023-05-16T02:14:37;11.77;90.15
75170;SHT31;63749;49.186;9.222;2023-05-16T02:17:02;11.70;90.57
75170;SHT31;63749;49.186;9.222;2023-05-16T02:19:28;11.67;90.41
75170;SHT31;63749;49.186;9.222;2023-05-16T02:21:53;11.66;90.78
75170;SHT31;63749;49.186;9.222;2023-05-16T02:24:18;11.60;90.84
75170;SHT31;63749;49.186;9.222;2023-05-16T02:26:44;11.62;90.78
75170;SHT31;63749;49.186;9.222;2023-05-16T02:29:09;11.63;91.02
75170;SHT31;63749;49.186;9.222;2023-05-16T02:31:35;11.65;90.99
75170;SHT31;63749;49.186;9.222;2023-05-16T02:34:01;11.65;91.04
75170;SHT31;63749;49.186;9.222;2023-05-16T02:36:27;11.70;91.07
75170;SHT31;63749;49.186;9.222;2023-05-16T02:38:52;11.70;91.10
75170;SHT31;63749;49.186;9.222;2023-05-16T02:41:18;11.69;90.95
75170;SHT31;63749;49.186;9.222;2023-05-16T02:43:43;11.71;90.90
75170;SHT31;63749;49.186;9.222;2023-05-16T02:46:28;11.69;90.99
75170;SHT31;63749;49.186;9.222;2023-05-16T02:48:57;11.70;90.93
75170;SHT31;63749;49.186;9.222;2023-05-16T02:51:25;11.69;91.13
75170;SHT31;63749;49.186;9.222;2023-05-16T02:53:51;11.69;90.89
75170;SHT31;63749;49.186;9.222;2023-05-16T02:56:17;11.69;90.73
75170;SHT31;63749;49.186;9.222;2023-05-16T02:58:45;11.70;90.69
75170;SHT31;63749;49.186;9.222;2023-05-16T03:01:11;11.69;90.63
75170;SHT31;63749;49.186;9.222;2023-05-16T03:03:36;11.69;90.57
75170;SHT31;63749;49.186;9.222;2023-05-16T03:06:02;11.74;90.34
75170;SHT31;63749;49.186;9.222;2023-05-16T03:08:27;11.73;90.26
75170;SHT31;63749;49.186;9.222;2023-05-16T03:10:53;11.74;90.26
75170;SHT31;63749;49.186;9.222;2023-05-16T03:13:18;11.79;90.30
75170;SHT31;63749;49.186;9.222;2023-05-16T03:15:44;11.79;90.17
75170;SHT31;63749;49.186;9.222;2023-05-16T03:18:10;11.81;90.15
75170;SHT31;63749;49.186;9.222;2023-05-16T03:20:36;11.83;89.97
75170;SHT31;63749;49.186;9.222;2023-05-16T03:23:02;11.87;89.91
75170;SHT31;63749;49.186;9.222;2023-05-16T03:25:28;11.89;89.91
75170;SHT31;63749;49.186;9.222;2023-05-16T03:27:53;11.90;89.88
75170;SHT31;63749;49.186;9.222;2023-05-16T03:30:18;11.90;89.82
75170;SHT31;63749;49.186;9.222;2023-05-16T03:32:45;11.86;89.88
75170;SHT31;63749;49.186;9.222;2023-05-16T03:35:10;11.81;90.14
75170;SHT31;63749;49.186;9.222;2023-05-16T03:37:36;11.80;90.10
75170;SHT31;63749;49.186;9.222;2023-05-16T03:40:02;11.73;90.07
75170;SHT31;63749;49.186;9.222;2023-05-16T03:42:29;11.69;90.13
75170;SHT31;63749;49.186;9.222;2023-05-16T03:44:55;11.67;90.25
75170;SHT31;63749;49.186;9.222;2023-05-16T03:47:20;11.60;90.49
75170;SHT31;63749;49.186;9.222;2023-05-16T03:49:46;11.52;90.80
75170;SHT31;63749;49.186;9.222;2023-05-16T03:52:11;11.44;90.93
75170;SHT31;63749;49.186;9.222;2023-05-16T03:54:37;11.42;91.21
75170;SHT31;63749;49.186;9.222;2023-05-16T03:57:02;11.38;91.21
75170;SHT31;63749;49.186;9.222;2023-05-16T03:59:27;11.38;91.34
75170;SHT31;63749;49.186;9.222;2023-05-16T04:01:53;11.40;91.26
75170;SHT31;63749;49.186;9.222;2023-05-16T04:04:18;11.44;91.28
75170;SHT31;63749;49.186;9.222;2023-05-16T04:06:43;11.49;91.08
75170;SHT31;63749;49.186;9.222;2023-05-16T04:09:09;11.53;91.08
75170;SHT31;63749;49.186;9.222;2023-05-16T04:11:34;11.63;91.18
75170;SHT31;63749;49.186;9.222;2023-05-16T04:14:00;11.73;91.05
75170;SHT31;63749;49.186;9.222;2023-05-16T04:16:26;11.81;90.85
75170;SHT31;63749;49.186;9.222;2023-05-16T04:18:51;11.90;90.69
75170;SHT31;63749;49.186;9.222;2023-05-16T04:21:17;11.98;90.51
75170;SHT31;63749;49.186;9.222;2023-05-16T04:23:42;12.07;90.39
75170;SHT31;63749;49.186;9.222;2023-05-16T04:26:07;12.11;90.28
75170;SHT31;63749;49.186;9.222;2023-05-16T04:28:33;12.18;90.08
75170;SHT31;63749;49.186;9.222;2023-05-16T04:31:00;12.25;89.24
75170;SHT31;63749;49.186;9.222;2023-05-16T04:33:26;12.31;88.76
75170;SHT31;63749;49.186;9.222;2023-05-16T04:35:51;12.34;88.69
75170;SHT31;63749;49.186;9.222;2023-05-16T04:38:17;12.39;88.18
75170;SHT31;63749;49.186;9.222;2023-05-16T04:40:42;12.41;88.20
75170;SHT31;63749;49.186;9.222;2023-05-16T04:43:08;12.48;87.89
75170;SHT31;63749;49.186;9.222;2023-05-16T04:45:33;12.48;87.71
75170;SHT31;63749;49.186;9.222;2023-05-16T04:48:00;12.46;87.98
75170;SHT31;63749;49.186;9.222;2023-05-16T04:50:25;12.48;87.94
75170;SHT31;63749;49.186;9.222;2023-05-16T04:52:51;12.48;87.96
75170;SHT31;63749;49.186;9.222;2023-05-16T04:55:16;12.58;87.73
75170;SHT31;63749;49.186;9.222;2023-05-16T04:57:42;12.63;87.69
75170;SHT31;63749;49.186;9.222;2023-05-16T05:00:07;12.73;87.03
75170;SHT31;63749;49.186;9.222;2023-05-16T05:02:36;12.70;86.58
75170;SHT31;63749;49.186;9.222;2023-05-16T05:05:02;12.73;86.37
75170;SHT31;63749;49.186;9.222;2023-05-16T05:07:27;12.80;85.87
75170;SHT31;63749;49.186;9.222;2023-05-16T05:09:53;12.86;85.33
75170;SHT31;63749;49.186;9.222;2023-05-16T05:12:20;12.90;85.18
75170;SHT31;63749;49.186;9.222;2023-05-16T05:14:46;12.97;85.22
75170;SHT31;63749;49.186;9.222;2023-05-16T05:17:11;13.03;84.28
75170;SHT31;63749;49.186;9.222;2023-05-16T05:19:36;13.17;83.62
75170;SHT31;63749;49.186;9.222;2023-05-16T05:22:02;13.24;83.02
75170;SHT31;63749;49.186;9.222;2023-05-16T05:24:27;13.27;82.11
75170;SHT31;63749;49.186;9.222;2023-05-16T05:26:52;13.38;82.24
75170;SHT31;63749;49.186;9.222;2023-05-16T05:29:18;13.37;81.82
75170;SHT31;63749;49.186;9.222;2023-05-16T05:31:43;13.45;82.69
75170;SHT31;63749;49.186;9.222;2023-05-16T05:34:08;13.37;82.60
75170;SHT31;63749;49.186;9.222;2023-05-16T05:36:34;13.41;82.31
75170;SHT31;63749;49.186;9.222;2023-05-16T05:38:59;13.40;81.78
75170;SHT31;63749;49.186;9.222;2023-05-16T05:41:24;13.30;82.15
75170;SHT31;63749;49.186;9.222;2023-05-16T05:43:51;13.36;82.25
75170;SHT31;63749;49.186;9.222;2023-05-16T05:46:16;13.28;82.54
75170;SHT31;63749;49.186;9.222;2023-05-16T05:48:41;13.31;82.35
75170;SHT31;63749;49.186;9.222;2023-05-16T05:51:07;13.34;82.27
75170;SHT31;63749;49.186;9.222;2023-05-16T05:53:33;13.36;82.59
75170;SHT31;63749;49.186;9.222;2023-05-16T05:55:58;13.30;82.22
75170;SHT31;63749;49.186;9.222;2023-05-16T05:58:23;13.27;82.29
75170;SHT31;63749;49.186;9.222;2023-05-16T06:00:49;13.21;82.47
75170;SHT31;63749;49.186;9.222;2023-05-16T06:03:14;13.11;82.67
75170;SHT31;63749;49.186;9.222;2023-05-16T06:05:40;13.03;83.06
75170;SHT31;63749;49.186;9.222;2023-05-16T06:08:06;12.99;83.21
75170;SHT31;63749;49.186;9.222;2023-05-16T06:10:31;12.97;84.08
75170;SHT31;63749;49.186;9.222;2023-05-16T06:12:56;12.89;84.91
75170;SHT31;63749;49.186;9.222;2023-05-16T06:15:22;12.76;86.59
75170;SHT31;63749;49.186;9.222;2023-05-16T06:17:47;12.48;87.86
75170;SHT31;63749;49.186;9.222;2023-05-16T06:20:13;12.27;88.73
75170;SHT31;63749;49.186;9.222;2023-05-16T06:22:38;12.11;89.93
75170;SHT31;63749;49.186;9.222;2023-05-16T06:25:04;12.00;90.66
75170;SHT31;63749;49.186;9.222;2023-05-16T06:27:29;11.93;91.80
75170;SHT31;63749;49.186;9.222;2023-05-16T06:29:55;11.87;91.19
75170;SHT31;63749;49.186;9.222;2023-05-16T06:32:20;11.84;90.99
75170;SHT31;63749;49.186;9.222;2023-05-16T06:34:47;11.76;90.68
75170;SHT31;63749;49.186;9.222;2023-05-16T06:37:12;11.71;90.65
75170;SHT31;63749;49.186;9.222;2023-05-16T06:39:38;11.71;91.59
75170;SHT31;63749;49.186;9.222;2023-05-16T06:42:03;11.65;92.03
75170;SHT31;63749;49.186;9.222;2023-05-16T06:44:29;11.59;92.57
75170;SHT31;63749;49.186;9.222;2023-05-16T06:46:54;11.58;92.86
75170;SHT31;63749;49.186;9.222;2023-05-16T06:49:20;11.53;92.30
75170;SHT31;63749;49.186;9.222;2023-05-16T06:51:45;11.52;92.82
75170;SHT31;63749;49.186;9.222;2023-05-16T06:54:10;11.50;92.54
75170;SHT31;63749;49.186;9.222;2023-05-16T06:56:36;11.49;92.47
75170;SHT31;63749;49.186;9.222;2023-05-16T06:59:01;11.50;94.18
75170;SHT31;63749;49.186;9.222;2023-05-16T07:01:27;11.53;94.37
75170;SHT31;63749;49.186;9.222;2023-05-16T07:03:52;11.58;94.41
75170;SHT31;63749;49.186;9.222;2023-05-16T07:06:17;11.59;95.05
75170;SHT31;63749;49.186;9.222;2023-05-16T07:08:43;11.62;95.00
75170;SHT31;63749;49.186;9.222;2023-05-16T07:11:08;11.66;94.97
75170;SHT31;63749;49.186;9.222;2023-05-16T07:13:35;11.63;95.14
75170;SHT31;63749;49.186;9.222;2023-05-16T07:16:00;11.71;95.32
75170;SHT31;63749;49.186;9.222;2023-05-16T07:18:26;11.74;95.31
75170;SHT31;63749;49.186;9.222;2023-05-16T07:20:51;11.81;95.00
75170;SHT31;63749;49.186;9.222;2023-05-16T07:23:16;11.80;94.42
75170;SHT31;63749;49.186;9.222;2023-05-16T07:25:42;11.83;94.06
75170;SHT31;63749;49.186;9.222;2023-05-16T07:28:07;11.83;93.95
75170;SHT31;63749;49.186;9.222;2023-05-16T07:30:32;11.81;93.65
75170;SHT31;63749;49.186;9.222;2023-05-16T07:32:58;11.90;93.97
75170;SHT31;63749;49.186;9.222;2023-05-16T07:35:24;11.89;93.89
75170;SHT31;63749;49.186;9.222;2023-05-16T07:37:49;11.91;94.06
75170;SHT31;63749;49.186;9.222;2023-05-16T07:40:15;11.97;93.50
75170;SHT31;63749;49.186;9.222;2023-05-16T07:42:42;12.05;93.29
75170;SHT31;63749;49.186;9.222;2023-05-16T07:45:07;12.11;93.19
75170;SHT31;63749;49.186;9.222;2023-05-16T07:47:33;12.11;92.99
75170;SHT31;63749;49.186;9.222;2023-05-16T07:49:59;12.31;91.76
75170;SHT31;63749;49.186;9.222;2023-05-16T07:52:24;12.37;92.34
75170;SHT31;63749;49.186;9.222;2023-05-16T07:54:50;12.42;92.29
75170;SHT31;63749;49.186;9.222;2023-05-16T07:57:15;12.48;92.39
75170;SHT31;63749;49.186;9.222;2023-05-16T07:59:41;12.55;92.41
75170;SHT31;63749;49.186;9.222;2023-05-16T08:02:07;12.62;92.41
75170;SHT31;63749;49.186;9.222;2023-05-16T08:04:32;12.72;91.97
75170;SHT31;63749;49.186;9.222;2023-05-16T08:06:57;12.82;91.94
75170;SHT31;63749;49.186;9.222;2023-05-16T08:09:23;12.85;91.66
75170;SHT31;63749;49.186;9.222;2023-05-16T08:11:48;12.83;91.24
75170;SHT31;63749;49.186;9.222;2023-05-16T08:14:13;12.93;92.02
75170;SHT31;63749;49.186;9.222;2023-05-16T08:16:39;12.87;90.43
75170;SHT31;63749;49.186;9.222;2023-05-16T08:19:04;12.76;90.54
75170;SHT31;63749;49.186;9.222;2023-05-16T08:21:29;12.86;91.53
75170;SHT31;63749;49.186;9.222;2023-05-16T08:23:56;12.83;92.01
75170;SHT31;63749;49.186;9.222;2023-05-16T08:26:21;12.87;92.00
75170;SHT31;63749;49.186;9.222;2023-05-16T08:28:46;12.85;92.03
75170;SHT31;63749;49.186;9.222;2023-05-16T08:31:12;12.86;91.88
75170;SHT31;63749;49.186;9.222;2023-05-16T08:33:37;12.83;91.98
75170;SHT31;63749;49.186;9.222;2023-05-16T08:36:03;12.89;92.52
75170;SHT31;63749;49.186;9.222;2023-05-16T08:38:28;12.89;91.49
75170;SHT31;63749;49.186;9.222;2023-05-16T08:40:53;13.00;91.42
75170;SHT31;63749;49.186;9.222;2023-05-16T08:43:19;13.04;91.08
75170;SHT31;63749;49.186;9.222;2023-05-16T08:45:44;13.07;91.15
75170;SHT31;63749;49.186;9.222;2023-05-16T08:48:10;13.08;91.15
75170;SHT31;63749;49.186;9.222;2023-05-16T08:50:36;13.11;90.99
75170;SHT31;63749;49.186;9.222;2023-05-16T08:53:05;13.21;90.77
75170;SHT31;63749;49.186;9.222;2023-05-16T08:55:32;13.26;90.00
75170;SHT31;63749;49.186;9.222;2023-05-16T08:57:58;13.40;89.91
75170;SHT31;63749;49.186;9.222;2023-05-16T09:00:25;13.51;89.61
75170;SHT31;63749;49.186;9.222;2023-05-16T09:02:51;13.55;88.58
75170;SHT31;63749;49.186;9.222;2023-05-16T09:05:17;13.71;88.61
75170;SHT31;63749;49.186;9.222;2023-05-16T09:07:43;13.78;89.57
75170;SHT31;63749;49.186;9.222;2023-05-16T09:10:09;13.96;87.66
75170;SHT31;63749;49.186;9.222;2023-05-16T09:12:35;14.01;88.29
75170;SHT31;63749;49.186;9.222;2023-05-16T09:15:04;14.02;87.72
75170;SHT31;63749;49.186;9.222;2023-05-16T09:17:38;14.02;87.90
75170;SHT31;63749;49.186;9.222;2023-05-16T09:20:14;14.06;86.74
75170;SHT31;63749;49.186;9.222;2023-05-16T09:22:49;13.94;86.78
75170;SHT31;63749;49.186;9.222;2023-05-16T09:25:16;14.05;86.75
75170;SHT31;63749;49.186;9.222;2023-05-16T09:27:41;14.02;87.01
75170;SHT31;63749;49.186;9.222;2023-05-16T09:30:07;13.89;87.72
75170;SHT31;63749;49.186;9.222;2023-05-16T09:32:33;13.83;87.69
75170;SHT31;63749;49.186;9.222;2023-05-16T09:34:58;13.74;87.00
75170;SHT31;63749;49.186;9.222;2023-05-16T09:37:24;13.64;87.97
75170;SHT31;63749;49.186;9.222;2023-05-16T09:39:53;13.64;87.91
75170;SHT31;63749;49.186;9.222;2023-05-16T09:42:21;13.61;87.33
75170;SHT31;63749;49.186;9.222;2023-05-16T09:44:53;13.58;87.19
75170;SHT31;63749;49.186;9.222;2023-05-16T09:47:20;13.59;87.31
75170;SHT31;63749;49.186;9.222;2023-05-16T09:49:50;13.62;86.62
75170;SHT31;63749;49.186;9.222;2023-05-16T09:52:16;13.67;86.25
75170;SHT31;63749;49.186;9.222;2023-05-16T09:54:42;13.68;86.36
75170;SHT31;63749;49.186;9.222;2023-05-16T09:57:07;13.64;85.91
75170;SHT31;63749;49.186;9.222;2023-05-16T09:59:37;13.54;85.61
75170;SHT31;63749;49.186;9.222;2023-05-16T10:02:04;13.40;85.65
75170;SHT31;63749;49.186;9.222;2023-05-16T10:04:30;13.21;86.68
75170;SHT31;63749;49.186;9.222;2023-05-16T10:06:55;13.18;87.48
75170;SHT31;63749;49.186;9.222;2023-05-16T10:09:22;13.16;86.72
75170;SHT31;63749;49.186;9.222;2023-05-16T10:11:48;13.16;87.43
75170;SHT31;63749;49.186;9.222;2023-05-16T10:14:19;13.27;86.12
75170;SHT31;63749;49.186;9.222;2023-05-16T10:16:46;13.30;86.43
75170;SHT31;63749;49.186;9.222;2023-05-16T10:19:16;13.27;86.17
75170;SHT31;63749;49.186;9.222;2023-05-16T10:21:53;13.20;85.58
75170;SHT31;63749;49.186;9.222;2023-05-16T10:24:28;13.11;83.96
75170;SHT31;63749;49.186;9.222;2023-05-16T10:26:55;13.08;85.45
75170;SHT31;63749;49.186;9.222;2023-05-16T10:29:21;13.17;84.85
75170;SHT31;63749;49.186;9.222;2023-05-16T10:31:47;13.26;84.49
75170;SHT31;63749;49.186;9.222;2023-05-16T10:34:14;13.21;83.79
75170;SHT31;63749;49.186;9.222;2023-05-16T10:36:40;13.28;84.05
75170;SHT31;63749;49.186;9.222;2023-05-16T10:39:05;13.34;83.97
75170;SHT31;63749;49.186;9.222;2023-05-16T10:41:32;13.33;83.21
75170;SHT31;63749;49.186;9.222;2023-05-16T10:43:58;13.31;82.71
75170;SHT31;63749;49.186;9.222;2023-05-16T10:46:26;13.43;81.37
75170;SHT31;63749;49.186;9.222;2023-05-16T10:48:53;13.36;80.76
75170;SHT31;63749;49.186;9.222;2023-05-16T10:53:50;13.62;79.84
75170;SHT31;63749;49.186;9.222;2023-05-16T10:56:21;13.94;78.13
75170;SHT31;63749;49.186;9.222;2023-05-16T10:58:47;14.29;77.10
75170;SHT31;63749;49.186;9.222;2023-05-16T11:01:32;14.56;76.81
75170;SHT31;63749;49.186;9.222;2023-05-16T11:06:27;14.23;76.65
75170;SHT31;63749;49.186;9.222;2023-05-16T11:14:02;14.38;76.15
75170;SHT31;63749;49.186;9.222;2023-05-16T11:16:28;14.36;75.70
75170;SHT31;63749;49.186;9.222;2023-05-16T11:18:54;14.36;76.05
75170;SHT31;63749;49.186;9.222;2023-05-16T11:21:19;14.38;75.10
75170;SHT31;63749;49.186;9.222;2023-05-16T11:26:49;14.68;75.22
75170;SHT31;63749;49.186;9.222;2023-05-16T11:29:15;14.78;75.50
75170;SHT31;63749;49.186;9.222;2023-05-16T11:31:40;14.56;74.42
75170;SHT31;63749;49.186;9.222;2023-05-16T11:34:06;14.40;75.63
75170;SHT31;63749;49.186;9.222;2023-05-16T11:36:31;14.25;76.49
75170;SHT31;63749;49.186;9.222;2023-05-16T11:39:07;14.19;76.28
75170;SHT31;63749;49.186;9.222;2023-05-16T11:41:34;14.37;76.52
75170;SHT31;63749;49.186;9.222;2023-05-16T11:44:00;14.38;75.31
75170;SHT31;63749;49.186;9.222;2023-05-16T11:46:25;14.48;75.40
75170;SHT31;63749;49.186;9.222;2023-05-16T11:48:51;14.68;75.59
75170;SHT31;63749;49.186;9.222;2023-05-16T11:51:17;14.81;74.83
75170;SHT31;63749;49.186;9.222;2023-05-16T11:53:43;14.74;71.96
75170;SHT31;63749;49.186;9.222;2023-05-16T11:56:11;14.68;71.01
75170;SHT31;63749;49.186;9.222;2023-05-16T11:58:37;14.57;71.86
75170;SHT31;63749;49.186;9.222;2023-05-16T12:01:03;14.46;72.10
75170;SHT31;63749;49.186;9.222;2023-05-16T12:03:29;14.40;72.81
75170;SHT31;63749;49.186;9.222;2023-05-16T12:05:57;14.26;72.96
75170;SHT31;63749;49.186;9.222;2023-05-16T12:08:23;14.33;73.46
75170;SHT31;63749;49.186;9.222;2023-05-16T12:10:52;14.40;73.48
75170;SHT31;63749;49.186;9.222;2023-05-16T12:13:19;14.44;72.43
75170;SHT31;63749;49.186;9.222;2023-05-16T12:15:46;14.40;71.93
75170;SHT31;63749;49.186;9.222;2023-05-16T12:18:12;14.33;71.72
75170;SHT31;63749;49.186;9.222;2023-05-16T12:20:37;14.48;71.44
75170;SHT31;63749;49.186;9.222;2023-05-16T12:23:04;14.59;70.91
75170;SHT31;63749;49.186;9.222;2023-05-16T12:25:34;14.73;71.31
75170;SHT31;63749;49.186;9.222;2023-05-16T12:28:03;14.85;70.77
75170;SHT31;63749;49.186;9.222;2023-05-16T12:30:30;14.73;69.56
75170;SHT31;63749;49.186;9.222;2023-05-16T12:33:01;15.21;69.57
75170;SHT31;63749;49.186;9.222;2023-05-16T12:35:31;15.47;67.30
75170;SHT31;63749;49.186;9.222;2023-05-16T12:37:58;15.83;66.36
75170;SHT31;63749;49.186;9.222;2023-05-16T12:40:27;15.70;65.72
75170;SHT31;63749;49.186;9.222;2023-05-16T12:42:53;15.40;66.72
75170;SHT31;63749;49.186;9.222;2023-05-16T12:45:18;15.16;67.12
75170;SHT31;63749;49.186;9.222;2023-05-16T12:47:44;15.49;67.39
75170;SHT31;63749;49.186;9.222;2023-05-16T12:50:12;15.84;64.77
75170;SHT31;63749;49.186;9.222;2023-05-16T12:52:51;16.29;64.52
75170;SHT31;63749;49.186;9.222;2023-05-16T12:55:18;16.18;63.22
75170;SHT31;63749;49.186;9.222;2023-05-16T12:57:44;16.69;63.16
75170;SHT31;63749;49.186;9.222;2023-05-16T13:00:12;17.02;62.12
75170;SHT31;63749;49.186;9.222;2023-05-16T13:02:39;16.87;61.86
75170;SHT31;63749;49.186;9.222;2023-05-16T13:05:05;16.87;61.68
75170;SHT31;63749;49.186;9.222;2023-05-16T13:07:32;17.24;60.38
75170;SHT31;63749;49.186;9.222;2023-05-16T13:09:57;17.30;59.84
75170;SHT31;63749;49.186;9.222;2023-05-16T13:12:22;17.32;60.29
75170;SHT31;63749;49.186;9.222;2023-05-16T13:14:51;17.06;59.55
75170;SHT31;63749;49.186;9.222;2023-05-16T13:17:17;17.03;59.54
75170;SHT31;63749;49.186;9.222;2023-05-16T13:19:42;17.14;58.83
75170;SHT31;63749;49.186;9.222;2023-05-16T13:22:07;17.37;58.39
75170;SHT31;63749;49.186;9.222;2023-05-16T13:24:32;17.02;58.97
75170;SHT31;63749;49.186;9.222;2023-05-16T13:26:58;17.16;58.21
75170;SHT31;63749;49.186;9.222;2023-05-16T13:29:23;17.27;57.97
75170;SHT31;63749;49.186;9.222;2023-05-16T13:31:49;17.77;57.04
75170;SHT31;63749;49.186;9.222;2023-05-16T13:34:14;18.23;55.96
75170;SHT31;63749;49.186;9.222;2023-05-16T13:36:39;17.50;56.54
75170;SHT31;63749;49.186;9.222;2023-05-16T13:39:05;16.92;59.25
75170;SHT31;63749;49.186;9.222;2023-05-16T13:41:30;16.59;59.93
75170;SHT31;63749;49.186;9.222;2023-05-16T13:43:57;16.52;60.01
75170;SHT31;63749;49.186;9.222;2023-05-16T13:46:23;16.01;61.14
75170;SHT31;63749;49.186;9.222;2023-05-16T13:48:48;16.14;61.38
75170;SHT31;63749;49.186;9.222;2023-05-16T13:51:14;16.21;59.31
75170;SHT31;63749;49.186;9.222;2023-05-16T13:53:39;16.29;59.17
75170;SHT31;63749;49.186;9.222;2023-05-16T13:56:05;16.65;58.84
75170;SHT31;63749;49.186;9.222;2023-05-16T13:58:30;17.40;56.29
75170;SHT31;63749;49.186;9.222;2023-05-16T14:00:55;18.43;53.42
75170;SHT31;63749;49.186;9.222;2023-05-16T14:03:21;19.28;51.67
75170;SHT31;63749;49.186;9.222;2023-05-16T14:05:47;19.09;50.29
75170;SHT31;63749;49.186;9.222;2023-05-16T14:08:12;18.53;51.96
75170;SHT31;63749;49.186;9.222;2023-05-16T14:10:38;17.85;52.45
75170;SHT31;63749;49.186;9.222;2023-05-16T14:13:03;17.45;53.28
75170;SHT31;63749;49.186;9.222;2023-05-16T14:15:29;17.06;52.84
75170;SHT31;63749;49.186;9.222;2023-05-16T14:17:54;17.17;52.55
75170;SHT31;63749;49.186;9.222;2023-05-16T14:20:20;17.54;51.94
75170;SHT31;63749;49.186;9.222;2023-05-16T14:22:45;17.57;51.59
75170;SHT31;63749;49.186;9.222;2023-05-16T14:25:11;17.86;51.56
75170;SHT31;63749;49.186;9.222;2023-05-16T14:27:36;17.99;50.93
75170;SHT31;63749;49.186;9.222;2023-05-16T14:30:02;18.83;48.88
75170;SHT31;63749;49.186;9.222;2023-05-16T14:32:27;18.99;47.58
75170;SHT31;63749;49.186;9.222;2023-05-16T14:34:53;18.63;47.22
75170;SHT31;63749;49.186;9.222;2023-05-16T14:37:18;19.69;46.24
75170;SHT31;63749;49.186;9.222;2023-05-16T14:39:45;20.29;44.51
75170;SHT31;63749;49.186;9.222;2023-05-16T14:42:11;19.84;45.41
75170;SHT31;63749;49.186;9.222;2023-05-16T14:44:37;19.36;45.50
75170;SHT31;63749;49.186;9.222;2023-05-16T14:47:02;18.67;47.04
75170;SHT31;63749;49.186;9.222;2023-05-16T14:49:28;18.36;47.49
75170;SHT31;63749;49.186;9.222;2023-05-16T14:51:54;17.85;48.91
75170;SHT31;63749;49.186;9.222;2023-05-16T14:54:20;17.40;50.43
75170;SHT31;63749;49.186;9.222;2023-05-16T14:56:46;16.80;52.16
75170;SHT31;63749;49.186;9.222;2023-05-16T14:59:11;16.31;52.69
75170;SHT31;63749;49.186;9.222;2023-05-16T15:01:37;16.18;53.04
75170;SHT31;63749;49.186;9.222;2023-05-16T15:04:02;16.04;53.14
75170;SHT31;63749;49.186;9.222;2023-05-16T15:06:28;16.20;53.65
75170;SHT31;63749;49.186;9.222;2023-05-16T15:08:54;16.28;53.86
75170;SHT31;63749;49.186;9.222;2023-05-16T15:11:19;16.10;53.19
75170;SHT31;63749;49.186;9.222;2023-05-16T15:13:45;16.22;52.91
75170;SHT31;63749;49.186;9.222;2023-05-16T15:16:12;16.25;53.47
75170;SHT31;63749;49.186;9.222;2023-05-16T15:18:37;16.15;53.79
75170;SHT31;63749;49.186;9.222;2023-05-16T15:21:03;16.13;54.10
75170;SHT31;63749;49.186;9.222;2023-05-16T15:23:28;16.13;52.98
75170;SHT31;63749;49.186;9.222;2023-05-16T15:25:54;16.24;52.70
75170;SHT31;63749;49.186;9.222;2023-05-16T15:28:19;16.14;52.26
75170;SHT31;63749;49.186;9.222;2023-05-16T15:30:44;16.08;52.28
75170;SHT31;63749;49.186;9.222;2023-05-16T15:33:10;16.15;52.50
75170;SHT31;63749;49.186;9.222;2023-05-16T15:35:35;16.13;52.91
75170;SHT31;63749;49.186;9.222;2023-05-16T15:38:00;16.01;53.35
75170;SHT31;63749;49.186;9.222;2023-05-16T15:40:26;16.07;52.20
75170;SHT31;63749;49.186;9.222;2023-05-16T15:42:51;15.97;52.38
75170;SHT31;63749;49.186;9.222;2023-05-16T15:45:16;15.97;52.63
75170;SHT31;63749;49.186;9.222;2023-05-16T15:47:42;15.98;52.53
75170;SHT31;63749;49.186;9.222;2023-05-16T15:50:08;15.86;50.97
75170;SHT31;63749;49.186;9.222;2023-05-16T15:52:33;15.84;50.87